createdAt,value
2022-10-17T00:03:35.673Z,11.00
2022-10-17T00:08:00.818Z,11.00
2022-10-17T00:12:26.019Z,11.00
2022-10-17T00:16:51.108Z,11.00
2022-10-17T00:21:17.691Z,11.00
2022-10-17T00:25:42.790Z,11.00
2022-10-17T00:30:11.481Z,11.10
2022-10-17T00:34:36.593Z,11.10
2022-10-17T00:39:01.695Z,11.10
2022-10-17T00:43:26.858Z,11.20
2022-10-17T00:47:56.255Z,11.20
2022-10-17T00:52:22.471Z,11.20
2022-10-17T00:56:48.325Z,11.20
2022-10-17T01:01:13.429Z,11.20
2022-10-17T01:05:39.016Z,11.20
2022-10-17T01:10:05.793Z,11.30
2022-10-17T01:14:32.132Z,11.40
2022-10-17T01:19:22.093Z,11.40
2022-10-17T01:23:50.114Z,11.40
2022-10-17T01:28:29.594Z,11.50
2022-10-17T01:33:11.741Z,11.50
2022-10-17T01:38:02.015Z,11.50
2022-10-17T01:42:33.997Z,11.50
2022-10-17T01:47:12.100Z,11.50
2022-10-17T01:51:44.729Z,11.60
2022-10-17T01:56:11.194Z,11.60
2022-10-17T02:00:37.824Z,11.60
2022-10-17T02:05:04.413Z,11.70
2022-10-17T02:09:29.542Z,11.70
2022-10-17T02:14:42.376Z,11.70
2022-10-17T02:19:29.577Z,11.80
2022-10-17T02:24:04.306Z,11.80
2022-10-17T02:28:58.541Z,11.80
2022-10-17T02:33:29.527Z,11.80
2022-10-17T02:37:55.414Z,11.90
2022-10-17T02:42:21.721Z,11.90
2022-10-17T02:46:53.236Z,11.90
2022-10-17T02:51:35.023Z,12.00
2022-10-17T02:56:03.157Z,12.00
2022-10-17T03:00:29.021Z,12.10
2022-10-17T03:04:54.174Z,12.20
2022-10-17T03:09:19.254Z,12.20
2022-10-17T03:13:44.326Z,12.30
2022-10-17T03:18:09.808Z,12.40
2022-10-17T03:22:34.927Z,13.20
2022-10-17T03:27:00.147Z,12.80
2022-10-17T03:31:25.357Z,12.70
2022-10-17T03:40:15.751Z,12.80
2022-10-17T03:44:40.837Z,12.90
2022-10-17T03:49:05.955Z,12.90
2022-10-17T03:53:31.114Z,13.00
2022-10-17T03:57:56.192Z,13.10
2022-10-17T04:02:21.313Z,13.10
2022-10-17T04:06:46.471Z,13.10
2022-10-17T04:11:15.307Z,13.20
2022-10-17T04:15:40.428Z,13.20
2022-10-17T04:20:06.129Z,13.20
2022-10-17T04:24:31.175Z,13.20
2022-10-17T04:28:56.305Z,13.20
2022-10-17T04:33:21.432Z,13.30
2022-10-17T04:37:46.599Z,13.30
2022-10-17T04:42:11.831Z,13.30
2022-10-17T04:46:37.064Z,13.30
2022-10-17T04:51:06.625Z,13.40
2022-10-17T04:55:31.874Z,13.40
2022-10-17T04:59:57.308Z,13.40
2022-10-17T05:04:24.823Z,13.30
2022-10-17T05:08:50.336Z,13.30
2022-10-17T05:13:15.953Z,13.30
2022-10-17T05:17:41.314Z,13.30
2022-10-17T05:22:07.019Z,13.30
2022-10-17T05:26:32.363Z,13.20
2022-10-17T05:30:57.648Z,13.20
2022-10-17T05:35:22.940Z,13.10
2022-10-17T05:39:51.326Z,13.10
2022-10-17T05:44:16.929Z,13.00
2022-10-17T05:48:42.112Z,13.00
2022-10-17T05:53:07.304Z,12.90
2022-10-17T05:57:32.547Z,12.90
2022-10-17T06:01:57.783Z,12.90
2022-10-17T06:06:23.428Z,12.90
2022-10-17T06:10:51.657Z,12.80
2022-10-17T06:15:16.970Z,12.80
2022-10-17T06:19:42.174Z,12.70
2022-10-17T06:24:07.417Z,12.70
2022-10-17T06:28:33.320Z,12.70
2022-10-17T06:32:58.617Z,12.70
2022-10-17T06:37:23.902Z,12.70
2022-10-17T06:41:49.127Z,12.80
2022-10-17T06:46:17.110Z,12.80
2022-10-17T06:50:42.388Z,12.80
2022-10-17T06:55:07.905Z,12.90
2022-10-17T06:59:33.082Z,13.00
2022-10-17T07:03:58.261Z,13.10
2022-10-17T07:08:24.122Z,13.20
2022-10-17T07:12:49.344Z,13.30
2022-10-17T07:17:14.587Z,13.40
2022-10-17T07:21:39.763Z,13.50
2022-10-17T07:26:11.196Z,13.70
2022-10-17T07:30:36.363Z,13.80
2022-10-17T07:35:01.554Z,13.90
2022-10-17T07:39:26.786Z,14.00
2022-10-17T07:43:51.975Z,14.20
2022-10-17T07:48:17.214Z,14.30
2022-10-17T07:52:43.324Z,14.50
2022-10-17T07:57:08.945Z,14.60
2022-10-17T08:01:34.227Z,14.70
2022-10-17T08:06:00.950Z,14.80
2022-10-17T08:10:29.689Z,15.00
2022-10-17T08:14:54.957Z,15.10
2022-10-17T08:19:20.129Z,15.20
2022-10-17T08:23:45.448Z,15.40
2022-10-17T08:28:10.757Z,15.50
2022-10-17T08:32:35.993Z,15.60
2022-10-17T08:37:01.124Z,15.80
2022-10-17T08:41:38.131Z,16.00
2022-10-17T08:46:06.858Z,16.20
2022-10-17T08:50:55.685Z,16.30
2022-10-17T08:55:44.422Z,16.40
2022-10-17T09:00:19.249Z,16.40
2022-10-17T09:05:23.982Z,16.50
2022-10-17T09:09:58.462Z,16.70
2022-10-17T09:14:35.580Z,16.80
2022-10-17T09:19:26.096Z,17.00
2022-10-17T09:24:09.156Z,17.10
2022-10-17T09:28:41.054Z,17.20
2022-10-17T09:33:28.790Z,17.40
2022-10-17T09:38:00.218Z,17.50
2022-10-17T09:42:27.034Z,17.60
2022-10-17T09:47:04.079Z,17.70
2022-10-17T09:51:31.462Z,17.80
2022-10-17T09:56:00.338Z,17.90
2022-10-17T10:00:43.107Z,18.00
2022-10-17T10:05:34.851Z,18.20
2022-10-17T10:10:01.896Z,18.30
2022-10-17T10:14:37.558Z,18.40
2022-10-17T10:19:20.310Z,18.60
2022-10-17T10:24:09.759Z,18.70
2022-10-17T10:28:36.711Z,18.90
2022-10-17T10:33:01.951Z,19.00
2022-10-17T10:37:29.490Z,19.10
2022-10-17T10:41:55.257Z,19.20
2022-10-17T10:46:22.620Z,19.40
2022-10-17T10:50:51.205Z,19.50
2022-10-17T10:55:27.165Z,19.60
2022-10-17T11:00:02.280Z,19.70
2022-10-17T11:04:32.101Z,19.80
2022-10-17T11:09:36.539Z,19.90
2022-10-17T11:14:22.951Z,20.00
2022-10-17T11:19:06.649Z,20.10
2022-10-17T11:23:46.620Z,20.20
2022-10-17T11:28:18.577Z,20.40
2022-10-17T11:32:57.354Z,20.40
2022-10-17T11:37:29.166Z,20.40
2022-10-17T11:42:06.905Z,20.50
2022-10-17T11:46:35.926Z,20.50
2022-10-17T11:55:59.369Z,20.60
2022-10-17T12:00:56.354Z,20.60
2022-10-17T12:05:27.306Z,20.70
2022-10-17T12:10:04.011Z,20.80
2022-10-17T12:14:46.713Z,20.90
2022-10-17T12:19:23.387Z,21.00
2022-10-17T12:23:55.464Z,21.00
2022-10-17T12:28:33.083Z,21.00
2022-10-17T12:33:23.507Z,21.10
2022-10-17T12:37:48.607Z,21.00
2022-10-17T12:42:31.914Z,21.00
2022-10-17T12:47:07.916Z,20.90
2022-10-17T12:52:31.137Z,20.90
2022-10-17T12:56:57.719Z,20.80
2022-10-17T13:01:30.656Z,20.80
2022-10-17T13:06:01.124Z,20.80
2022-10-17T13:10:36.370Z,20.70
2022-10-17T13:15:07.269Z,20.70
2022-10-17T13:19:43.822Z,20.70
2022-10-17T13:24:22.806Z,20.70
2022-10-17T13:29:13.110Z,20.60
2022-10-17T13:33:40.923Z,20.60
2022-10-17T13:38:09.936Z,20.50
2022-10-17T13:42:40.683Z,20.50
2022-10-17T13:47:05.857Z,20.40
2022-10-17T13:51:31.695Z,20.30
2022-10-17T13:56:26.447Z,20.20
2022-10-17T14:00:52.506Z,20.20
2022-10-17T14:05:20.977Z,20.10
2022-10-17T14:09:47.267Z,20.00
2022-10-17T14:14:23.717Z,19.90
2022-10-17T14:18:51.125Z,19.80
2022-10-17T14:23:37.023Z,19.70
2022-10-17T14:28:11.682Z,19.70
2022-10-17T14:32:37.743Z,19.60
2022-10-17T14:37:15.365Z,19.50
2022-10-17T14:41:46.225Z,19.50
2022-10-17T14:46:17.722Z,19.40
2022-10-17T14:51:14.187Z,19.40
2022-10-17T14:55:55.664Z,19.30
2022-10-17T15:00:22.657Z,19.30
2022-10-17T15:04:47.904Z,19.30
2022-10-17T15:09:13.140Z,19.20
2022-10-17T15:13:43.316Z,19.20
2022-10-17T15:18:12.695Z,19.10
2022-10-17T15:22:37.934Z,19.10
2022-10-17T15:27:07.457Z,19.00
2022-10-17T15:31:33.264Z,19.00
2022-10-17T15:40:29.663Z,18.90
2022-10-17T15:44:55.521Z,18.90
2022-10-17T15:49:20.811Z,18.80
2022-10-17T15:53:46.630Z,18.80
2022-10-17T15:58:16.471Z,18.80
2022-10-17T16:02:41.642Z,18.80
2022-10-17T16:07:07.369Z,18.70
2022-10-17T16:11:39.234Z,18.70
2022-10-17T16:16:04.462Z,18.70
2022-10-17T16:20:29.728Z,18.70
2022-10-17T16:24:58.852Z,18.70
2022-10-17T16:29:24.109Z,18.60
2022-10-17T16:33:53.125Z,18.60
2022-10-17T16:38:18.801Z,18.60
2022-10-17T16:42:44.603Z,18.50
2022-10-17T16:47:10.006Z,18.50
2022-10-17T16:51:36.014Z,18.50
2022-10-17T16:56:05.195Z,18.50
2022-10-17T17:00:30.545Z,18.50
2022-10-17T17:04:55.770Z,18.50
2022-10-17T17:09:21.083Z,18.50
2022-10-17T17:13:46.453Z,18.40
2022-10-17T17:18:14.032Z,18.40
2022-10-17T17:22:39.395Z,18.40
2022-10-17T17:27:04.672Z,18.30
2022-10-17T17:31:32.415Z,18.30
2022-10-17T17:36:00.118Z,18.30
2022-10-17T17:40:25.371Z,18.30
2022-10-17T17:44:50.945Z,18.30
2022-10-17T17:49:16.222Z,18.30
2022-10-17T17:53:41.640Z,18.20
2022-10-17T17:58:08.263Z,18.20
2022-10-17T18:02:33.553Z,18.20
2022-10-17T18:06:58.780Z,18.20
2022-10-17T18:11:24.382Z,18.20
2022-10-17T18:15:51.918Z,18.20
2022-10-17T18:20:17.189Z,18.10
2022-10-17T18:24:42.439Z,18.20
2022-10-17T18:29:07.694Z,18.10
2022-10-17T18:33:33.171Z,18.10
2022-10-17T18:37:58.437Z,18.10
2022-10-17T18:42:23.897Z,18.10
2022-10-17T18:46:49.904Z,18.10
2022-10-17T18:51:19.835Z,18.10
2022-10-17T19:00:17.250Z,18.00
2022-10-17T19:04:42.523Z,18.00
2022-10-17T19:09:11.006Z,18.00
2022-10-17T19:13:36.683Z,18.00
2022-10-17T19:18:01.961Z,18.00
2022-10-17T19:22:28.317Z,18.00
2022-10-17T19:26:57.848Z,18.00
2022-10-17T19:31:27.023Z,18.00
2022-10-17T19:36:06.648Z,18.00
2022-10-17T19:40:31.930Z,18.00
2022-10-17T19:44:57.225Z,18.00
2022-10-17T19:49:22.420Z,18.00
2022-10-17T19:53:47.921Z,18.00
2022-10-17T19:58:13.167Z,18.00
2022-10-17T20:02:38.354Z,17.90
2022-10-17T20:07:03.608Z,17.90
2022-10-17T20:11:29.922Z,17.90
2022-10-17T20:15:56.992Z,17.90
2022-10-17T20:20:22.319Z,17.80
2022-10-17T20:24:47.506Z,17.80
2022-10-17T20:29:17.590Z,17.80
2022-10-17T20:33:43.430Z,17.80
2022-10-17T20:38:08.740Z,17.70
2022-10-17T20:42:33.997Z,17.70
2022-10-17T20:47:02.332Z,17.60
2022-10-17T20:51:28.313Z,17.60
2022-10-17T20:56:25.702Z,17.60
2022-10-17T21:00:50.919Z,17.60
2022-10-17T21:05:16.736Z,17.50
2022-10-17T21:09:42.264Z,17.50
2022-10-17T21:14:08.036Z,17.50
2022-10-17T21:18:33.332Z,17.40
2022-10-17T21:23:00.542Z,17.30
2022-10-17T21:27:26.073Z,17.30
2022-10-17T21:31:51.632Z,17.20
2022-10-17T21:36:18.615Z,17.20
2022-10-17T21:40:46.900Z,17.10
2022-10-17T21:45:15.717Z,17.00
2022-10-17T21:49:45.428Z,17.00
2022-10-17T21:54:11.234Z,17.00
2022-10-17T21:58:37.160Z,16.90
2022-10-17T22:03:02.432Z,16.90
2022-10-17T22:07:27.640Z,16.80
2022-10-17T22:11:56.589Z,16.80
2022-10-17T22:16:22.712Z,16.70
2022-10-17T22:20:47.960Z,16.70
2022-10-17T22:25:13.097Z,16.60
2022-10-17T22:29:39.628Z,16.60
2022-10-17T22:34:05.740Z,16.60
2022-10-17T22:38:31.101Z,16.50
2022-10-17T22:42:56.443Z,16.50
2022-10-17T22:47:21.487Z,16.50
2022-10-17T22:51:46.620Z,16.40
2022-10-17T22:56:18.003Z,16.40
2022-10-17T23:00:43.064Z,16.40
2022-10-17T23:05:08.539Z,16.30
2022-10-17T23:09:33.673Z,16.30
2022-10-17T23:13:58.751Z,16.30
2022-10-17T23:18:25.388Z,16.20
2022-10-17T23:22:50.700Z,16.20
2022-10-17T23:27:15.771Z,16.20
2022-10-17T23:31:40.921Z,16.10
2022-10-17T23:36:06.447Z,16.10
2022-10-17T23:40:31.563Z,16.10
2022-10-17T23:44:56.769Z,16.00
2022-10-17T23:49:21.954Z,16.00
2022-10-17T23:53:47.414Z,16.00
2022-10-17T23:58:12.650Z,16.00
